sensor_id;sensor_type;location;lat;lon;timestamp;temperature;humidity
8896;DHT22;4484;48.928;10.066;2022-09-17T00:01:19;7.90;99.90
8896;DHT22;4484;48.928;10.066;2022-09-17T00:03:51;7.90;99.90
8896;DHT22;4484;48.928;10.066;2022-09-17T00:06:19;7.90;99.90
8896;DHT22;4484;48.928;10.066;2022-09-17T00:08:46;7.80;99.90
8896;DHT22;4484;48.928;10.066;2022-09-17T00:11:16;7.90;99.90
8896;DHT22;4484;48.928;10.066;2022-09-17T00:13:43;7.80;99.90
8896;DHT22;4484;48.928;10.066;2022-09-17T00:16:11;7.80;99.90
8896;DHT22;4484;48.928;10.066;2022-09-17T00:18:39;7.90;99.90
8896;DHT22;4484;48.928;10.066;2022-09-17T00:21:15;7.80;99.90
8896;DHT22;4484;48.928;10.066;2022-09-17T00:23:43;7.80;99.90
8896;DHT22;4484;48.928;10.066;2022-09-17T00:26:10;7.80;99.90
8896;DHT22;4484;48.928;10.066;2022-09-17T00:28:37;7.80;99.90
8896;DHT22;4484;48.928;10.066;2022-09-17T00:31:09;7.70;99.90
8896;DHT22;4484;48.928;10.066;2022-09-17T00:33:36;7.70;99.90
8896;DHT22;4484;48.928;10.066;2022-09-17T00:36:04;7.70;99.90
8896;DHT22;4484;48.928;10.066;2022-09-17T00:38:31;7.70;99.90
8896;DHT22;4484;48.928;10.066;2022-09-17T00:40:58;7.70;99.90
8896;DHT22;4484;48.928;10.066;2022-09-17T00:43:38;7.60;99.90
8896;DHT22;4484;48.928;10.066;2022-09-17T00:46:40;7.50;99.90
8896;DHT22;4484;48.928;10.066;2022-09-17T00:49:18;7.60;99.90
8896;DHT22;4484;48.928;10.066;2022-09-17T00:51:52;7.50;99.90
8896;DHT22;4484;48.928;10.066;2022-09-17T00:54:26;7.50;99.90
8896;DHT22;4484;48.928;10.066;2022-09-17T00:56:53;7.40;99.90
8896;DHT22;4484;48.928;10.066;2022-09-17T00:59:22;7.40;99.90
8896;DHT22;4484;48.928;10.066;2022-09-17T01:01:49;7.40;99.90
8896;DHT22;4484;48.928;10.066;2022-09-17T01:04:18;7.40;99.90
8896;DHT22;4484;48.928;10.066;2022-09-17T01:15:48;7.30;99.90
8896;DHT22;4484;48.928;10.066;2022-09-17T01:21:37;7.30;99.90
8896;DHT22;4484;48.928;10.066;2022-09-17T01:30:07;7.20;99.90
8896;DHT22;4484;48.928;10.066;2022-09-17T01:35:30;7.20;99.90
8896;DHT22;4484;48.928;10.066;2022-09-17T01:43:29;7.30;99.90
8896;DHT22;4484;48.928;10.066;2022-09-17T01:48:47;7.40;99.90
8896;DHT22;4484;48.928;10.066;2022-09-17T01:51:19;7.40;99.90
8896;DHT22;4484;48.928;10.066;2022-09-17T01:54:09;7.50;99.90
8896;DHT22;4484;48.928;10.066;2022-09-17T01:56:54;7.50;99.90
8896;DHT22;4484;48.928;10.066;2022-09-17T01:59:57;7.50;99.90
8896;DHT22;4484;48.928;10.066;2022-09-17T02:02:37;7.50;99.90
8896;DHT22;4484;48.928;10.066;2022-09-17T02:05:23;7.50;99.90
8896;DHT22;4484;48.928;10.066;2022-09-17T02:08:08;7.50;99.90
8896;DHT22;4484;48.928;10.066;2022-09-17T02:10:45;7.40;99.90
8896;DHT22;4484;48.928;10.066;2022-09-17T02:13:24;7.40;99.90
8896;DHT22;4484;48.928;10.066;2022-09-17T02:16:08;7.40;99.90
8896;DHT22;4484;48.928;10.066;2022-09-17T02:18:48;7.40;99.90
8896;DHT22;4484;48.928;10.066;2022-09-17T02:21:26;7.40;99.90
8896;DHT22;4484;48.928;10.066;2022-09-17T02:26:41;7.40;99.90
8896;DHT22;4484;48.928;10.066;2022-09-17T02:29:31;7.30;99.90
8896;DHT22;4484;48.928;10.066;2022-09-17T02:31:59;7.30;99.90
8896;DHT22;4484;48.928;10.066;2022-09-17T02:34:27;7.30;99.90
8896;DHT22;4484;48.928;10.066;2022-09-17T02:36:56;7.40;99.90
8896;DHT22;4484;48.928;10.066;2022-09-17T02:39:24;7.40;99.90
8896;DHT22;4484;48.928;10.066;2022-09-17T02:50:05;7.50;99.90
8896;DHT22;4484;48.928;10.066;2022-09-17T02:58:50;7.50;99.90
8896;DHT22;4484;48.928;10.066;2022-09-17T03:01:53;7.60;99.90
8896;DHT22;4484;48.928;10.066;2022-09-17T03:04:23;7.60;99.90
8896;DHT22;4484;48.928;10.066;2022-09-17T03:06:52;7.60;99.90
8896;DHT22;4484;48.928;10.066;2022-09-17T03:09:19;7.60;99.90
8896;DHT22;4484;48.928;10.066;2022-09-17T03:11:46;7.60;99.90
8896;DHT22;4484;48.928;10.066;2022-09-17T03:14:13;7.60;99.90
8896;DHT22;4484;48.928;10.066;2022-09-17T03:16:40;7.60;99.90
8896;DHT22;4484;48.928;10.066;2022-09-17T03:19:07;7.60;99.90
8896;DHT22;4484;48.928;10.066;2022-09-17T03:21:34;7.60;99.90
8896;DHT22;4484;48.928;10.066;2022-09-17T03:24:00;7.70;99.90
8896;DHT22;4484;48.928;10.066;2022-09-17T03:26:27;7.60;99.90
8896;DHT22;4484;48.928;10.066;2022-09-17T03:28:54;7.70;99.90
8896;DHT22;4484;48.928;10.066;2022-09-17T03:31:21;7.70;99.90
8896;DHT22;4484;48.928;10.066;2022-09-17T03:33:48;7.70;99.90
8896;DHT22;4484;48.928;10.066;2022-09-17T03:36:16;7.70;99.90
8896;DHT22;4484;48.928;10.066;2022-09-17T03:38:43;7.70;99.90
8896;DHT22;4484;48.928;10.066;2022-09-17T03:41:11;7.70;99.90
8896;DHT22;4484;48.928;10.066;2022-09-17T03:43:37;7.60;99.90
8896;DHT22;4484;48.928;10.066;2022-09-17T03:46:05;7.70;99.90
8896;DHT22;4484;48.928;10.066;2022-09-17T03:48:32;7.70;99.90
8896;DHT22;4484;48.928;10.066;2022-09-17T03:51:02;7.70;99.90
8896;DHT22;4484;48.928;10.066;2022-09-17T03:53:29;7.70;99.90
8896;DHT22;4484;48.928;10.066;2022-09-17T03:55:58;7.70;99.90
8896;DHT22;4484;48.928;10.066;2022-09-17T03:58:26;7.60;99.90
8896;DHT22;4484;48.928;10.066;2022-09-17T04:00:53;7.60;99.90
8896;DHT22;4484;48.928;10.066;2022-09-17T04:03:27;7.60;99.90
8896;DHT22;4484;48.928;10.066;2022-09-17T04:05:53;7.60;99.90
8896;DHT22;4484;48.928;10.066;2022-09-17T04:08:21;7.60;99.90
8896;DHT22;4484;48.928;10.066;2022-09-17T04:10:48;7.50;99.90
8896;DHT22;4484;48.928;10.066;2022-09-17T04:13:15;7.50;99.90
8896;DHT22;4484;48.928;10.066;2022-09-17T04:15:42;7.50;99.90
8896;DHT22;4484;48.928;10.066;2022-09-17T04:18:09;7.50;99.90
8896;DHT22;4484;48.928;10.066;2022-09-17T04:20:36;7.50;99.90
8896;DHT22;4484;48.928;10.066;2022-09-17T04:23:04;7.50;99.90
8896;DHT22;4484;48.928;10.066;2022-09-17T04:25:33;7.50;99.90
8896;DHT22;4484;48.928;10.066;2022-09-17T04:28:00;7.50;99.90
8896;DHT22;4484;48.928;10.066;2022-09-17T04:30:27;7.50;99.90
8896;DHT22;4484;48.928;10.066;2022-09-17T04:32:53;7.50;99.90
8896;DHT22;4484;48.928;10.066;2022-09-17T04:35:20;7.50;99.90
8896;DHT22;4484;48.928;10.066;2022-09-17T04:37:54;7.50;99.90
8896;DHT22;4484;48.928;10.066;2022-09-17T04:40:22;7.50;99.90
8896;DHT22;4484;48.928;10.066;2022-09-17T04:42:57;7.50;99.90
8896;DHT22;4484;48.928;10.066;2022-09-17T04:45:30;7.50;99.90
8896;DHT22;4484;48.928;10.066;2022-09-17T04:47:59;7.50;99.90
8896;DHT22;4484;48.928;10.066;2022-09-17T04:50:26;7.50;99.90
8896;DHT22;4484;48.928;10.066;2022-09-17T04:52:54;7.60;99.90
8896;DHT22;4484;48.928;10.066;2022-09-17T04:55:20;7.50;99.90
8896;DHT22;4484;48.928;10.066;2022-09-17T04:57:48;7.50;99.90
8896;DHT22;4484;48.928;10.066;2022-09-17T05:00:17;7.50;99.90
8896;DHT22;4484;48.928;10.066;2022-09-17T05:02:46;7.50;99.90
8896;DHT22;4484;48.928;10.066;2022-09-17T05:05:15;7.50;99.90
8896;DHT22;4484;48.928;10.066;2022-09-17T05:07:42;7.50;99.90
8896;DHT22;4484;48.928;10.066;2022-09-17T05:10:10;7.50;99.90
8896;DHT22;4484;48.928;10.066;2022-09-17T05:12:37;7.50;99.90
8896;DHT22;4484;48.928;10.066;2022-09-17T05:15:05;7.50;99.90
8896;DHT22;4484;48.928;10.066;2022-09-17T05:17:32;7.60;99.90
8896;DHT22;4484;48.928;10.066;2022-09-17T05:19:59;7.60;99.90
8896;DHT22;4484;48.928;10.066;2022-09-17T05:22:25;7.60;99.90
8896;DHT22;4484;48.928;10.066;2022-09-17T05:24:52;7.60;99.90
8896;DHT22;4484;48.928;10.066;2022-09-17T05:27:19;7.60;99.90
8896;DHT22;4484;48.928;10.066;2022-09-17T05:29:46;7.60;99.90
8896;DHT22;4484;48.928;10.066;2022-09-17T05:32:13;7.60;99.90
8896;DHT22;4484;48.928;10.066;2022-09-17T05:34:40;7.60;99.90
8896;DHT22;4484;48.928;10.066;2022-09-17T05:37:10;7.60;99.90
8896;DHT22;4484;48.928;10.066;2022-09-17T05:39:37;7.60;99.90
8896;DHT22;4484;48.928;10.066;2022-09-17T05:42:03;7.60;99.90
8896;DHT22;4484;48.928;10.066;2022-09-17T05:44:30;7.60;99.90
8896;DHT22;4484;48.928;10.066;2022-09-17T05:47:01;7.60;99.90
8896;DHT22;4484;48.928;10.066;2022-09-17T05:49:27;7.70;99.90
8896;DHT22;4484;48.928;10.066;2022-09-17T05:51:54;7.60;99.90
8896;DHT22;4484;48.928;10.066;2022-09-17T05:54:21;7.70;99.90
8896;DHT22;4484;48.928;10.066;2022-09-17T05:56:52;7.70;99.90
8896;DHT22;4484;48.928;10.066;2022-09-17T05:59:19;7.70;99.90
8896;DHT22;4484;48.928;10.066;2022-09-17T06:01:46;7.70;99.90
8896;DHT22;4484;48.928;10.066;2022-09-17T06:04:13;7.70;99.90
8896;DHT22;4484;48.928;10.066;2022-09-17T06:06:40;7.70;99.90
8896;DHT22;4484;48.928;10.066;2022-09-17T06:09:08;7.70;99.90
8896;DHT22;4484;48.928;10.066;2022-09-17T06:11:36;7.70;99.90
8896;DHT22;4484;48.928;10.066;2022-09-17T06:14:03;7.70;99.90
8896;DHT22;4484;48.928;10.066;2022-09-17T06:16:42;7.80;99.90
8896;DHT22;4484;48.928;10.066;2022-09-17T06:19:08;7.80;99.90
8896;DHT22;4484;48.928;10.066;2022-09-17T06:21:35;7.80;99.90
8896;DHT22;4484;48.928;10.066;2022-09-17T06:24:02;7.70;99.90
8896;DHT22;4484;48.928;10.066;2022-09-17T06:26:29;7.80;99.90
8896;DHT22;4484;48.928;10.066;2022-09-17T06:28:58;7.80;99.90
8896;DHT22;4484;48.928;10.066;2022-09-17T06:31:29;7.80;99.90
8896;DHT22;4484;48.928;10.066;2022-09-17T06:33:56;7.90;99.90
8896;DHT22;4484;48.928;10.066;2022-09-17T06:36:24;7.90;99.90
8896;DHT22;4484;48.928;10.066;2022-09-17T06:38:51;7.90;99.90
8896;DHT22;4484;48.928;10.066;2022-09-17T06:41:18;8.00;99.90
8896;DHT22;4484;48.928;10.066;2022-09-17T06:43:54;8.00;99.90
8896;DHT22;4484;48.928;10.066;2022-09-17T06:46:21;8.00;99.90
8896;DHT22;4484;48.928;10.066;2022-09-17T06:48:48;8.00;99.90
8896;DHT22;4484;48.928;10.066;2022-09-17T06:51:17;8.00;99.90
8896;DHT22;4484;48.928;10.066;2022-09-17T06:53:54;7.90;99.90
8896;DHT22;4484;48.928;10.066;2022-09-17T06:56:21;7.90;99.90
8896;DHT22;4484;48.928;10.066;2022-09-17T06:58:48;8.00;99.90
8896;DHT22;4484;48.928;10.066;2022-09-17T07:01:15;7.90;99.90
8896;DHT22;4484;48.928;10.066;2022-09-17T07:03:48;7.90;99.90
8896;DHT22;4484;48.928;10.066;2022-09-17T07:06:16;7.90;99.90
8896;DHT22;4484;48.928;10.066;2022-09-17T07:08:43;7.90;99.90
8896;DHT22;4484;48.928;10.066;2022-09-17T07:11:12;7.80;99.90
8896;DHT22;4484;48.928;10.066;2022-09-17T07:13:54;7.80;99.90
8896;DHT22;4484;48.928;10.066;2022-09-17T07:16:21;7.80;99.90
8896;DHT22;4484;48.928;10.066;2022-09-17T07:18:49;7.80;99.90
8896;DHT22;4484;48.928;10.066;2022-09-17T07:21:17;7.80;99.90
8896;DHT22;4484;48.928;10.066;2022-09-17T07:23:44;7.80;99.90
8896;DHT22;4484;48.928;10.066;2022-09-17T07:26:13;7.90;99.90
8896;DHT22;4484;48.928;10.066;2022-09-17T07:28:42;7.90;99.90
8896;DHT22;4484;48.928;10.066;2022-09-17T07:31:20;7.90;99.90
8896;DHT22;4484;48.928;10.066;2022-09-17T07:33:47;7.90;99.90
8896;DHT22;4484;48.928;10.066;2022-09-17T07:36:15;7.90;99.90
8896;DHT22;4484;48.928;10.066;2022-09-17T07:38:43;8.00;99.90
8896;DHT22;4484;48.928;10.066;2022-09-17T07:41:15;8.00;99.90
8896;DHT22;4484;48.928;10.066;2022-09-17T07:43:43;8.00;99.90
8896;DHT22;4484;48.928;10.066;2022-09-17T07:46:14;8.00;99.90
8896;DHT22;4484;48.928;10.066;2022-09-17T07:48:41;8.00;99.90
8896;DHT22;4484;48.928;10.066;2022-09-17T07:51:30;8.00;99.90
8896;DHT22;4484;48.928;10.066;2022-09-17T07:54:00;8.00;99.90
8896;DHT22;4484;48.928;10.066;2022-09-17T07:56:37;8.00;99.90
8896;DHT22;4484;48.928;10.066;2022-09-17T07:59:04;8.10;99.90
8896;DHT22;4484;48.928;10.066;2022-09-17T08:01:31;8.10;99.90
8896;DHT22;4484;48.928;10.066;2022-09-17T08:04:00;8.20;99.90
8896;DHT22;4484;48.928;10.066;2022-09-17T08:06:27;8.20;99.90
8896;DHT22;4484;48.928;10.066;2022-09-17T08:08:55;8.20;99.90
8896;DHT22;4484;48.928;10.066;2022-09-17T08:11:25;8.20;99.90
8896;DHT22;4484;48.928;10.066;2022-09-17T08:14:14;8.20;99.90
8896;DHT22;4484;48.928;10.066;2022-09-17T08:16:41;8.20;99.90
8896;DHT22;4484;48.928;10.066;2022-09-17T08:19:08;8.20;99.90
8896;DHT22;4484;48.928;10.066;2022-09-17T08:21:38;8.20;99.90
8896;DHT22;4484;48.928;10.066;2022-09-17T08:24:05;8.20;99.90
8896;DHT22;4484;48.928;10.066;2022-09-17T08:26:32;8.30;99.90
8896;DHT22;4484;48.928;10.066;2022-09-17T08:28:59;8.40;99.90
8896;DHT22;4484;48.928;10.066;2022-09-17T08:31:26;8.50;99.90
8896;DHT22;4484;48.928;10.066;2022-09-17T08:33:55;8.70;99.90
8896;DHT22;4484;48.928;10.066;2022-09-17T08:36:22;8.90;99.90
8896;DHT22;4484;48.928;10.066;2022-09-17T08:38:52;9.20;99.90
8896;DHT22;4484;48.928;10.066;2022-09-17T08:41:25;9.40;99.90
8896;DHT22;4484;48.928;10.066;2022-09-17T08:46:33;9.90;99.90
8896;DHT22;4484;48.928;10.066;2022-09-17T08:54:31;10.40;99.90
8896;DHT22;4484;48.928;10.066;2022-09-17T09:00:00;10.30;99.90
8896;DHT22;4484;48.928;10.066;2022-09-17T09:05:53;10.30;99.90
8896;DHT22;4484;48.928;10.066;2022-09-17T09:08:30;10.20;99.90
8896;DHT22;4484;48.928;10.066;2022-09-17T09:11:03;10.20;99.90
8896;DHT22;4484;48.928;10.066;2022-09-17T09:13:43;10.20;99.90
8896;DHT22;4484;48.928;10.066;2022-09-17T09:16:16;10.20;99.90
8896;DHT22;4484;48.928;10.066;2022-09-17T09:18:46;10.30;99.90
8896;DHT22;4484;48.928;10.066;2022-09-17T09:21:41;10.30;99.90
8896;DHT22;4484;48.928;10.066;2022-09-17T09:24:25;10.30;99.90
8896;DHT22;4484;48.928;10.066;2022-09-17T09:27:16;10.50;99.90
8896;DHT22;4484;48.928;10.066;2022-09-17T09:29:50;10.70;99.90
8896;DHT22;4484;48.928;10.066;2022-09-17T09:35:25;10.80;99.90
8896;DHT22;4484;48.928;10.066;2022-09-17T09:40:36;10.70;99.90
8896;DHT22;4484;48.928;10.066;2022-09-17T09:43:21;10.50;99.90
8896;DHT22;4484;48.928;10.066;2022-09-17T09:59:25;10.20;99.90
8896;DHT22;4484;48.928;10.066;2022-09-17T10:01:52;10.10;99.90
8896;DHT22;4484;48.928;10.066;2022-09-17T10:04:27;10.10;99.90
8896;DHT22;4484;48.928;10.066;2022-09-17T10:07:00;10.10;99.90
8896;DHT22;4484;48.928;10.066;2022-09-17T10:09:32;10.00;99.90
8896;DHT22;4484;48.928;10.066;2022-09-17T10:14:32;10.20;99.90
8896;DHT22;4484;48.928;10.066;2022-09-17T10:20:13;10.50;99.90
8896;DHT22;4484;48.928;10.066;2022-09-17T10:22:46;10.60;99.90
8896;DHT22;4484;48.928;10.066;2022-09-17T10:25:33;10.70;99.90
8896;DHT22;4484;48.928;10.066;2022-09-17T10:28:04;10.70;99.90
8896;DHT22;4484;48.928;10.066;2022-09-17T10:31:04;10.70;99.90
8896;DHT22;4484;48.928;10.066;2022-09-17T10:34:01;10.60;99.90
8896;DHT22;4484;48.928;10.066;2022-09-17T10:36:41;10.50;99.90
8896;DHT22;4484;48.928;10.066;2022-09-17T10:39:32;10.50;99.90
8896;DHT22;4484;48.928;10.066;2022-09-17T10:42:16;10.50;99.90
8896;DHT22;4484;48.928;10.066;2022-09-17T10:44:55;10.60;99.90
8896;DHT22;4484;48.928;10.066;2022-09-17T10:47:25;10.70;99.90
8896;DHT22;4484;48.928;10.066;2022-09-17T10:49:58;10.80;99.90
8896;DHT22;4484;48.928;10.066;2022-09-17T11:03:50;11.90;99.90
8896;DHT22;4484;48.928;10.066;2022-09-17T11:11:29;11.90;99.90
8896;DHT22;4484;48.928;10.066;2022-09-17T11:25:56;11.80;99.90
8896;DHT22;4484;48.928;10.066;2022-09-17T11:34:25;12.70;99.90
8896;DHT22;4484;48.928;10.066;2022-09-17T11:42:22;12.70;99.90
8896;DHT22;4484;48.928;10.066;2022-09-17T11:45:01;12.80;99.90
8896;DHT22;4484;48.928;10.066;2022-09-17T11:47:33;12.70;99.90
8896;DHT22;4484;48.928;10.066;2022-09-17T11:55:20;13.40;99.90
8896;DHT22;4484;48.928;10.066;2022-09-17T11:57:53;13.50;99.90
8896;DHT22;4484;48.928;10.066;2022-09-17T12:00:23;13.50;99.90
8896;DHT22;4484;48.928;10.066;2022-09-17T12:05:57;13.30;99.90
8896;DHT22;4484;48.928;10.066;2022-09-17T12:08:43;13.70;99.90
8896;DHT22;4484;48.928;10.066;2022-09-17T12:11:26;14.00;99.90
8896;DHT22;4484;48.928;10.066;2022-09-17T12:13:59;14.10;99.90
8896;DHT22;4484;48.928;10.066;2022-09-17T12:16:37;14.20;99.90
8896;DHT22;4484;48.928;10.066;2022-09-17T12:19:35;14.30;99.90
8896;DHT22;4484;48.928;10.066;2022-09-17T12:24:32;14.00;99.90
8896;DHT22;4484;48.928;10.066;2022-09-17T12:48:33;14.30;99.90
8896;DHT22;4484;48.928;10.066;2022-09-17T12:53:57;14.20;99.90
8896;DHT22;4484;48.928;10.066;2022-09-17T12:59:09;13.70;99.90
8896;DHT22;4484;48.928;10.066;2022-09-17T13:22:03;12.90;99.90
8896;DHT22;4484;48.928;10.066;2022-09-17T13:24:33;12.90;99.90
8896;DHT22;4484;48.928;10.066;2022-09-17T13:27:02;12.80;99.90
8896;DHT22;4484;48.928;10.066;2022-09-17T13:40:27;12.40;99.90
8896;DHT22;4484;48.928;10.066;2022-09-17T13:45:29;12.10;99.90
8896;DHT22;4484;48.928;10.066;2022-09-17T13:48:08;11.90;99.90
8896;DHT22;4484;48.928;10.066;2022-09-17T13:55:54;11.40;99.90
8896;DHT22;4484;48.928;10.066;2022-09-17T14:01:06;11.30;99.90
8896;DHT22;4484;48.928;10.066;2022-09-17T14:16:33;12.60;99.90
8896;DHT22;4484;48.928;10.066;2022-09-17T14:19:04;12.80;99.90
8896;DHT22;4484;48.928;10.066;2022-09-17T14:24:44;13.20;99.90
8896;DHT22;4484;48.928;10.066;2022-09-17T14:32:50;13.70;99.90
8896;DHT22;4484;48.928;10.066;2022-09-17T14:37:57;13.70;99.90
8896;DHT22;4484;48.928;10.066;2022-09-17T14:40:26;13.60;99.90
8896;DHT22;4484;48.928;10.066;2022-09-17T14:42:55;13.60;99.90
8896;DHT22;4484;48.928;10.066;2022-09-17T14:45:27;13.50;99.90
8896;DHT22;4484;48.928;10.066;2022-09-17T14:48:17;13.40;99.90
8896;DHT22;4484;48.928;10.066;2022-09-17T14:50:47;13.30;99.90
8896;DHT22;4484;48.928;10.066;2022-09-17T14:53:16;13.10;99.90
8896;DHT22;4484;48.928;10.066;2022-09-17T14:55:48;13.10;99.90
8896;DHT22;4484;48.928;10.066;2022-09-17T14:58:31;13.00;99.90
8896;DHT22;4484;48.928;10.066;2022-09-17T15:00:59;13.10;99.90
8896;DHT22;4484;48.928;10.066;2022-09-17T15:03:26;13.10;99.90
8896;DHT22;4484;48.928;10.066;2022-09-17T15:05:53;13.10;99.90
8896;DHT22;4484;48.928;10.066;2022-09-17T15:08:25;13.00;99.90
8896;DHT22;4484;48.928;10.066;2022-09-17T15:11:02;13.00;99.90
8896;DHT22;4484;48.928;10.066;2022-09-17T15:13:36;12.90;99.90
8896;DHT22;4484;48.928;10.066;2022-09-17T15:16:19;12.70;99.90
8896;DHT22;4484;48.928;10.066;2022-09-17T15:21:29;12.60;99.90
8896;DHT22;4484;48.928;10.066;2022-09-17T15:26:52;12.40;99.90
8896;DHT22;4484;48.928;10.066;2022-09-17T15:29:22;12.40;99.90
8896;DHT22;4484;48.928;10.066;2022-09-17T15:31:50;12.50;99.90
8896;DHT22;4484;48.928;10.066;2022-09-17T15:34:17;12.40;99.90
8896;DHT22;4484;48.928;10.066;2022-09-17T15:37:04;12.40;99.90
8896;DHT22;4484;48.928;10.066;2022-09-17T15:39:40;12.40;99.90
8896;DHT22;4484;48.928;10.066;2022-09-17T15:42:24;12.50;99.90
8896;DHT22;4484;48.928;10.066;2022-09-17T15:44:52;12.50;99.90
8896;DHT22;4484;48.928;10.066;2022-09-17T15:50:34;12.40;99.90
8896;DHT22;4484;48.928;10.066;2022-09-17T15:53:11;12.30;99.90
8896;DHT22;4484;48.928;10.066;2022-09-17T15:55:45;12.20;99.90
8896;DHT22;4484;48.928;10.066;2022-09-17T15:58:25;12.00;99.90
8896;DHT22;4484;48.928;10.066;2022-09-17T16:08:58;11.50;99.90
8896;DHT22;4484;48.928;10.066;2022-09-17T16:11:30;11.40;99.90
8896;DHT22;4484;48.928;10.066;2022-09-17T16:13:59;11.30;99.90
8896;DHT22;4484;48.928;10.066;2022-09-17T16:16:37;11.20;99.90
8896;DHT22;4484;48.928;10.066;2022-09-17T16:19:04;11.30;99.90
8896;DHT22;4484;48.928;10.066;2022-09-17T16:21:32;11.30;99.90
8896;DHT22;4484;48.928;10.066;2022-09-17T16:23:58;11.20;99.90
8896;DHT22;4484;48.928;10.066;2022-09-17T16:26:30;11.10;99.90
8896;DHT22;4484;48.928;10.066;2022-09-17T16:29:02;11.00;99.90
8896;DHT22;4484;48.928;10.066;2022-09-17T16:31:30;10.90;99.90
8896;DHT22;4484;48.928;10.066;2022-09-17T16:33:58;10.80;99.90
8896;DHT22;4484;48.928;10.066;2022-09-17T16:36:25;10.80;99.90
8896;DHT22;4484;48.928;10.066;2022-09-17T16:38:51;10.70;99.90
8896;DHT22;4484;48.928;10.066;2022-09-17T16:41:18;10.70;99.90
8896;DHT22;4484;48.928;10.066;2022-09-17T16:43:45;10.60;99.90
8896;DHT22;4484;48.928;10.066;2022-09-17T16:46:12;10.50;99.90
8896;DHT22;4484;48.928;10.066;2022-09-17T16:48:40;10.60;99.90
8896;DHT22;4484;48.928;10.066;2022-09-17T16:51:10;10.50;99.90
8896;DHT22;4484;48.928;10.066;2022-09-17T16:53:38;10.50;99.90
8896;DHT22;4484;48.928;10.066;2022-09-17T16:56:09;10.50;99.90
8896;DHT22;4484;48.928;10.066;2022-09-17T16:58:37;10.50;99.90
8896;DHT22;4484;48.928;10.066;2022-09-17T17:01:10;10.50;99.90
8896;DHT22;4484;48.928;10.066;2022-09-17T17:03:38;10.50;99.90
8896;DHT22;4484;48.928;10.066;2022-09-17T17:06:05;10.50;99.90
8896;DHT22;4484;48.928;10.066;2022-09-17T17:08:32;10.60;99.90
8896;DHT22;4484;48.928;10.066;2022-09-17T17:10:59;10.60;99.90
8896;DHT22;4484;48.928;10.066;2022-09-17T17:13:26;10.50;99.90
8896;DHT22;4484;48.928;10.066;2022-09-17T17:15:53;10.50;99.90
8896;DHT22;4484;48.928;10.066;2022-09-17T17:18:21;10.50;99.90
8896;DHT22;4484;48.928;10.066;2022-09-17T17:20:48;10.40;99.90
8896;DHT22;4484;48.928;10.066;2022-09-17T17:23:15;10.40;99.90
8896;DHT22;4484;48.928;10.066;2022-09-17T17:25:42;10.30;99.90
8896;DHT22;4484;48.928;10.066;2022-09-17T17:28:09;10.20;99.90
8896;DHT22;4484;48.928;10.066;2022-09-17T17:30:36;10.20;99.90
8896;DHT22;4484;48.928;10.066;2022-09-17T17:33:03;10.10;99.90
8896;DHT22;4484;48.928;10.066;2022-09-17T17:35:31;10.10;99.90
8896;DHT22;4484;48.928;10.066;2022-09-17T17:37:58;10.10;99.90
8896;DHT22;4484;48.928;10.066;2022-09-17T17:40:24;10.10;99.90
8896;DHT22;4484;48.928;10.066;2022-09-17T17:42:52;10.00;99.90
8896;DHT22;4484;48.928;10.066;2022-09-17T17:45:19;10.00;99.90
8896;DHT22;4484;48.928;10.066;2022-09-17T17:47:46;10.00;99.90
8896;DHT22;4484;48.928;10.066;2022-09-17T17:50:13;10.00;99.90
8896;DHT22;4484;48.928;10.066;2022-09-17T17:52:41;10.00;99.90
8896;DHT22;4484;48.928;10.066;2022-09-17T17:55:14;9.90;99.90
8896;DHT22;4484;48.928;10.066;2022-09-17T17:57:42;9.90;99.90
8896;DHT22;4484;48.928;10.066;2022-09-17T18:00:09;9.90;99.90
8896;DHT22;4484;48.928;10.066;2022-09-17T18:02:38;9.80;99.90
8896;DHT22;4484;48.928;10.066;2022-09-17T18:05:06;9.80;99.90
8896;DHT22;4484;48.928;10.066;2022-09-17T18:07:33;9.80;99.90
8896;DHT22;4484;48.928;10.066;2022-09-17T18:10:00;9.70;99.90
8896;DHT22;4484;48.928;10.066;2022-09-17T18:12:27;9.70;99.90
8896;DHT22;4484;48.928;10.066;2022-09-17T18:14:54;9.70;99.90
8896;DHT22;4484;48.928;10.066;2022-09-17T18:17:21;9.70;99.90
8896;DHT22;4484;48.928;10.066;2022-09-17T18:19:47;9.70;99.90
8896;DHT22;4484;48.928;10.066;2022-09-17T18:22:14;9.70;99.90
8896;DHT22;4484;48.928;10.066;2022-09-17T18:24:41;9.70;99.90
8896;DHT22;4484;48.928;10.066;2022-09-17T18:27:08;9.70;99.90
8896;DHT22;4484;48.928;10.066;2022-09-17T18:29:35;9.70;99.90
8896;DHT22;4484;48.928;10.066;2022-09-17T18:32:02;9.70;99.90
8896;DHT22;4484;48.928;10.066;2022-09-17T18:34:29;9.60;99.90
8896;DHT22;4484;48.928;10.066;2022-09-17T18:36:55;9.60;99.90
8896;DHT22;4484;48.928;10.066;2022-09-17T18:39:22;9.60;99.90
8896;DHT22;4484;48.928;10.066;2022-09-17T18:42:10;9.50;99.90
8896;DHT22;4484;48.928;10.066;2022-09-17T18:44:37;9.50;99.90
8896;DHT22;4484;48.928;10.066;2022-09-17T18:47:04;9.50;99.90
8896;DHT22;4484;48.928;10.066;2022-09-17T18:49:31;9.50;99.90
8896;DHT22;4484;48.928;10.066;2022-09-17T18:51:58;9.40;99.90
8896;DHT22;4484;48.928;10.066;2022-09-17T18:54:24;9.40;99.90
8896;DHT22;4484;48.928;10.066;2022-09-17T18:56:51;9.30;99.90
8896;DHT22;4484;48.928;10.066;2022-09-17T18:59:23;9.20;99.90
8896;DHT22;4484;48.928;10.066;2022-09-17T19:01:49;9.10;99.90
8896;DHT22;4484;48.928;10.066;2022-09-17T19:04:17;9.10;99.90
8896;DHT22;4484;48.928;10.066;2022-09-17T19:06:43;9.00;99.90
8896;DHT22;4484;48.928;10.066;2022-09-17T19:09:10;8.90;99.90
8896;DHT22;4484;48.928;10.066;2022-09-17T19:11:39;8.80;99.90
8896;DHT22;4484;48.928;10.066;2022-09-17T19:14:08;8.70;99.90
8896;DHT22;4484;48.928;10.066;2022-09-17T19:16:35;8.50;99.90
8896;DHT22;4484;48.928;10.066;2022-09-17T19:19:02;8.50;99.90
8896;DHT22;4484;48.928;10.066;2022-09-17T19:21:29;8.40;99.90
8896;DHT22;4484;48.928;10.066;2022-09-17T19:23:56;8.40;99.90
8896;DHT22;4484;48.928;10.066;2022-09-17T19:26:25;8.30;99.90
8896;DHT22;4484;48.928;10.066;2022-09-17T19:28:55;8.30;99.90
8896;DHT22;4484;48.928;10.066;2022-09-17T19:31:26;8.30;99.90
8896;DHT22;4484;48.928;10.066;2022-09-17T19:33:54;8.20;99.90
8896;DHT22;4484;48.928;10.066;2022-09-17T19:36:21;8.20;99.90
8896;DHT22;4484;48.928;10.066;2022-09-17T19:38:48;8.20;99.90
8896;DHT22;4484;48.928;10.066;2022-09-17T19:41:17;8.20;99.90
8896;DHT22;4484;48.928;10.066;2022-09-17T19:43:45;8.20;99.90
8896;DHT22;4484;48.928;10.066;2022-09-17T19:46:16;8.10;99.90
8896;DHT22;4484;48.928;10.066;2022-09-17T19:48:55;8.10;99.90
8896;DHT22;4484;48.928;10.066;2022-09-17T19:51:24;8.10;99.90
8896;DHT22;4484;48.928;10.066;2022-09-17T19:53:51;8.10;99.90
8896;DHT22;4484;48.928;10.066;2022-09-17T19:56:20;8.10;99.90
8896;DHT22;4484;48.928;10.066;2022-09-17T19:58:48;8.00;99.90
8896;DHT22;4484;48.928;10.066;2022-09-17T20:01:16;8.00;99.90
8896;DHT22;4484;48.928;10.066;2022-09-17T20:03:45;8.00;99.90
8896;DHT22;4484;48.928;10.066;2022-09-17T20:06:14;7.90;99.90
8896;DHT22;4484;48.928;10.066;2022-09-17T20:08:45;7.90;99.90
8896;DHT22;4484;48.928;10.066;2022-09-17T20:11:14;7.90;99.90
8896;DHT22;4484;48.928;10.066;2022-09-17T20:13:41;7.90;99.90
8896;DHT22;4484;48.928;10.066;2022-09-17T20:16:14;7.80;99.90
8896;DHT22;4484;48.928;10.066;2022-09-17T20:18:41;7.80;99.90
8896;DHT22;4484;48.928;10.066;2022-09-17T20:21:15;7.80;99.90
8896;DHT22;4484;48.928;10.066;2022-09-17T20:23:42;7.80;99.90
8896;DHT22;4484;48.928;10.066;2022-09-17T20:26:11;7.80;99.90